sensor_id;sensor_type;location;lat;lon;timestamp;P1;durP1;ratioP1;P2;durP2;ratioP2
16531;SDS011;66872;63.142;14.482;2023-07-29T00:00:06;1.70;;;1.60;;
16531;SDS011;66872;63.142;14.482;2023-07-29T00:02:32;1.87;;;1.67;;
16531;SDS011;66872;63.142;14.482;2023-07-29T00:04:59;1.80;;;1.70;;
16531;SDS011;66872;63.142;14.482;2023-07-29T00:07:25;1.70;;;1.60;;
16531;SDS011;66872;63.142;14.482;2023-07-29T00:09:51;1.93;;;1.83;;
16531;SDS011;66872;63.142;14.482;2023-07-29T00:12:17;1.57;;;1.47;;
16531;SDS011;66872;63.142;14.482;2023-07-29T00:14:43;2.07;;;1.87;;
16531;SDS011;66872;63.142;14.482;2023-07-29T00:17:08;1.60;;;1.50;;
16531;SDS011;66872;63.142;14.482;2023-07-29T00:19:34;1.80;;;1.70;;
16531;SDS011;66872;63.142;14.482;2023-07-29T00:22:00;1.77;;;1.67;;
16531;SDS011;66872;63.142;14.482;2023-07-29T00:24:26;2.10;;;1.70;;
16531;SDS011;66872;63.142;14.482;2023-07-29T00:26:51;2.07;;;1.90;;
16531;SDS011;66872;63.142;14.482;2023-07-29T00:29:17;1.80;;;1.70;;
16531;SDS011;66872;63.142;14.482;2023-07-29T00:31:43;1.70;;;1.60;;
16531;SDS011;66872;63.142;14.482;2023-07-29T00:34:09;1.70;;;1.60;;
16531;SDS011;66872;63.142;14.482;2023-07-29T00:36:34;1.73;;;1.50;;
16531;SDS011;66872;63.142;14.482;2023-07-29T00:39:00;1.70;;;1.60;;
16531;SDS011;66872;63.142;14.482;2023-07-29T00:41:26;2.07;;;1.87;;
16531;SDS011;66872;63.142;14.482;2023-07-29T00:43:54;2.30;;;1.60;;
16531;SDS011;66872;63.142;14.482;2023-07-29T00:46:20;1.70;;;1.60;;
16531;SDS011;66872;63.142;14.482;2023-07-29T00:48:53;1.97;;;1.77;;
16531;SDS011;66872;63.142;14.482;2023-07-29T00:51:20;1.73;;;1.63;;
16531;SDS011;66872;63.142;14.482;2023-07-29T00:53:45;1.63;;;1.53;;
16531;SDS011;66872;63.142;14.482;2023-07-29T00:56:11;1.63;;;1.53;;
16531;SDS011;66872;63.142;14.482;2023-07-29T00:58:37;1.90;;;1.80;;
16531;SDS011;66872;63.142;14.482;2023-07-29T01:01:03;1.67;;;1.57;;
16531;SDS011;66872;63.142;14.482;2023-07-29T01:03:34;1.90;;;1.70;;
16531;SDS011;66872;63.142;14.482;2023-07-29T01:09:20;1.97;;;1.77;;
16531;SDS011;66872;63.142;14.482;2023-07-29T01:11:41;1.53;;;1.43;;
16531;SDS011;66872;63.142;14.482;2023-07-29T01:16:42;1.80;;;1.70;;
16531;SDS011;66872;63.142;14.482;2023-07-29T01:19:14;1.80;;;1.70;;
16531;SDS011;66872;63.142;14.482;2023-07-29T01:22:00;1.63;;;1.53;;
16531;SDS011;66872;63.142;14.482;2023-07-29T01:24:27;1.90;;;1.80;;
16531;SDS011;66872;63.142;14.482;2023-07-29T01:26:53;1.90;;;1.70;;
16531;SDS011;66872;63.142;14.482;2023-07-29T01:29:19;1.70;;;1.60;;
16531;SDS011;66872;63.142;14.482;2023-07-29T01:31:45;2.17;;;1.97;;
16531;SDS011;66872;63.142;14.482;2023-07-29T01:34:17;1.70;;;1.60;;
16531;SDS011;66872;63.142;14.482;2023-07-29T01:36:51;1.70;;;1.60;;
16531;SDS011;66872;63.142;14.482;2023-07-29T01:39:21;2.00;;;1.70;;
16531;SDS011;66872;63.142;14.482;2023-07-29T01:41:48;1.70;;;1.60;;
16531;SDS011;66872;63.142;14.482;2023-07-29T01:44:15;1.70;;;1.60;;
16531;SDS011;66872;63.142;14.482;2023-07-29T01:46:43;1.60;;;1.50;;
16531;SDS011;66872;63.142;14.482;2023-07-29T01:49:09;1.40;;;1.30;;
16531;SDS011;66872;63.142;14.482;2023-07-29T01:51:35;1.70;;;1.60;;
16531;SDS011;66872;63.142;14.482;2023-07-29T01:54:01;1.97;;;1.60;;
16531;SDS011;66872;63.142;14.482;2023-07-29T01:56:27;1.80;;;1.70;;
16531;SDS011;66872;63.142;14.482;2023-07-29T01:58:53;1.70;;;1.60;;
16531;SDS011;66872;63.142;14.482;2023-07-29T02:01:19;2.43;;;1.80;;
16531;SDS011;66872;63.142;14.482;2023-07-29T02:03:47;1.50;;;1.40;;
16531;SDS011;66872;63.142;14.482;2023-07-29T02:06:20;1.60;;;1.50;;
16531;SDS011;66872;63.142;14.482;2023-07-29T02:08:46;1.60;;;1.50;;
16531;SDS011;66872;63.142;14.482;2023-07-29T02:11:11;1.57;;;1.47;;
16531;SDS011;66872;63.142;14.482;2023-07-29T02:13:38;1.70;;;1.60;;
16531;SDS011;66872;63.142;14.482;2023-07-29T02:16:07;1.70;;;1.60;;
16531;SDS011;66872;63.142;14.482;2023-07-29T02:18:36;1.70;;;1.60;;
16531;SDS011;66872;63.142;14.482;2023-07-29T02:21:02;3.23;;;1.50;;
16531;SDS011;66872;63.142;14.482;2023-07-29T02:23:28;1.40;;;1.30;;
16531;SDS011;66872;63.142;14.482;2023-07-29T02:25:54;1.50;;;1.40;;
16531;SDS011;66872;63.142;14.482;2023-07-29T02:28:19;1.60;;;1.50;;
16531;SDS011;66872;63.142;14.482;2023-07-29T02:30:45;2.83;;;1.83;;
16531;SDS011;66872;63.142;14.482;2023-07-29T02:33:11;1.60;;;1.50;;
16531;SDS011;66872;63.142;14.482;2023-07-29T02:35:37;1.50;;;1.40;;
16531;SDS011;66872;63.142;14.482;2023-07-29T02:38:02;1.90;;;1.70;;
16531;SDS011;66872;63.142;14.482;2023-07-29T02:40:28;1.57;;;1.47;;
16531;SDS011;66872;63.142;14.482;2023-07-29T02:42:54;1.60;;;1.50;;
16531;SDS011;66872;63.142;14.482;2023-07-29T02:45:22;1.50;;;1.40;;
16531;SDS011;66872;63.142;14.482;2023-07-29T02:47:48;1.60;;;1.50;;
16531;SDS011;66872;63.142;14.482;2023-07-29T02:50:14;1.40;;;1.30;;
16531;SDS011;66872;63.142;14.482;2023-07-29T02:52:40;2.03;;;1.83;;
16531;SDS011;66872;63.142;14.482;2023-07-29T02:55:05;1.60;;;1.50;;
16531;SDS011;66872;63.142;14.482;2023-07-29T02:57:31;1.60;;;1.50;;
16531;SDS011;66872;63.142;14.482;2023-07-29T02:59:57;1.43;;;1.33;;
16531;SDS011;66872;63.142;14.482;2023-07-29T03:02:23;1.60;;;1.50;;
16531;SDS011;66872;63.142;14.482;2023-07-29T03:04:50;1.60;;;1.50;;
16531;SDS011;66872;63.142;14.482;2023-07-29T03:07:16;1.40;;;1.30;;
16531;SDS011;66872;63.142;14.482;2023-07-29T03:09:41;1.60;;;1.50;;
16531;SDS011;66872;63.142;14.482;2023-07-29T03:12:07;1.70;;;1.60;;
16531;SDS011;66872;63.142;14.482;2023-07-29T03:14:33;1.50;;;1.40;;
16531;SDS011;66872;63.142;14.482;2023-07-29T03:17:02;1.67;;;1.57;;
16531;SDS011;66872;63.142;14.482;2023-07-29T03:19:29;1.50;;;1.40;;
16531;SDS011;66872;63.142;14.482;2023-07-29T03:21:55;1.60;;;1.40;;
16531;SDS011;66872;63.142;14.482;2023-07-29T03:24:30;1.40;;;1.30;;
16531;SDS011;66872;63.142;14.482;2023-07-29T03:26:56;1.40;;;1.30;;
16531;SDS011;66872;63.142;14.482;2023-07-29T03:29:37;1.60;;;1.50;;
16531;SDS011;66872;63.142;14.482;2023-07-29T03:32:03;1.50;;;1.40;;
16531;SDS011;66872;63.142;14.482;2023-07-29T03:34:29;1.47;;;1.37;;
16531;SDS011;66872;63.142;14.482;2023-07-29T03:36:55;1.40;;;1.30;;
16531;SDS011;66872;63.142;14.482;2023-07-29T03:39:20;1.40;;;1.30;;
16531;SDS011;66872;63.142;14.482;2023-07-29T03:41:46;1.60;;;1.50;;
16531;SDS011;66872;63.142;14.482;2023-07-29T03:44:12;1.40;;;1.30;;
16531;SDS011;66872;63.142;14.482;2023-07-29T03:46:38;1.30;;;1.20;;
16531;SDS011;66872;63.142;14.482;2023-07-29T03:49:03;1.30;;;1.20;;
16531;SDS011;66872;63.142;14.482;2023-07-29T03:51:29;1.40;;;1.30;;
16531;SDS011;66872;63.142;14.482;2023-07-29T03:53:55;1.30;;;1.20;;
16531;SDS011;66872;63.142;14.482;2023-07-29T03:56:23;1.27;;;1.17;;
16531;SDS011;66872;63.142;14.482;2023-07-29T03:58:49;1.37;;;1.27;;
16531;SDS011;66872;63.142;14.482;2023-07-29T04:01:15;1.30;;;1.20;;
16531;SDS011;66872;63.142;14.482;2023-07-29T04:03:50;1.30;;;1.20;;
16531;SDS011;66872;63.142;14.482;2023-07-29T04:06:17;0.97;;;0.97;;
16531;SDS011;66872;63.142;14.482;2023-07-29T04:08:42;1.50;;;1.40;;
16531;SDS011;66872;63.142;14.482;2023-07-29T04:11:08;1.40;;;1.30;;
16531;SDS011;66872;63.142;14.482;2023-07-29T04:13:34;1.40;;;1.30;;
16531;SDS011;66872;63.142;14.482;2023-07-29T04:16:02;1.30;;;1.20;;
16531;SDS011;66872;63.142;14.482;2023-07-29T04:18:31;1.00;;;1.00;;
16531;SDS011;66872;63.142;14.482;2023-07-29T04:20:57;1.20;;;1.10;;
16531;SDS011;66872;63.142;14.482;2023-07-29T04:23:23;1.40;;;1.30;;
16531;SDS011;66872;63.142;14.482;2023-07-29T04:25:49;1.30;;;1.20;;
16531;SDS011;66872;63.142;14.482;2023-07-29T04:28:15;1.07;;;1.03;;
16531;SDS011;66872;63.142;14.482;2023-07-29T04:30:41;1.83;;;1.10;;
16531;SDS011;66872;63.142;14.482;2023-07-29T04:33:10;1.20;;;1.10;;
16531;SDS011;66872;63.142;14.482;2023-07-29T04:35:36;1.13;;;1.03;;
16531;SDS011;66872;63.142;14.482;2023-07-29T04:38:02;1.20;;;1.10;;
16531;SDS011;66872;63.142;14.482;2023-07-29T04:40:44;1.30;;;1.20;;
16531;SDS011;66872;63.142;14.482;2023-07-29T04:43:10;1.40;;;1.30;;
16531;SDS011;66872;63.142;14.482;2023-07-29T04:45:36;1.27;;;1.17;;
16531;SDS011;66872;63.142;14.482;2023-07-29T04:48:07;1.33;;;1.23;;
16531;SDS011;66872;63.142;14.482;2023-07-29T04:50:33;1.20;;;1.10;;
16531;SDS011;66872;63.142;14.482;2023-07-29T04:52:58;1.30;;;1.20;;
16531;SDS011;66872;63.142;14.482;2023-07-29T04:55:24;1.20;;;1.10;;
16531;SDS011;66872;63.142;14.482;2023-07-29T04:57:50;1.40;;;1.30;;
16531;SDS011;66872;63.142;14.482;2023-07-29T05:00:16;1.20;;;1.10;;
16531;SDS011;66872;63.142;14.482;2023-07-29T05:02:41;1.20;;;1.10;;
16531;SDS011;66872;63.142;14.482;2023-07-29T05:05:07;1.20;;;1.10;;
16531;SDS011;66872;63.142;14.482;2023-07-29T05:07:33;1.30;;;1.20;;
16531;SDS011;66872;63.142;14.482;2023-07-29T05:09:59;1.30;;;1.20;;
16531;SDS011;66872;63.142;14.482;2023-07-29T05:12:25;1.30;;;1.20;;
16531;SDS011;66872;63.142;14.482;2023-07-29T05:14:55;1.27;;;1.17;;
16531;SDS011;66872;63.142;14.482;2023-07-29T05:17:21;1.10;;;1.00;;
16531;SDS011;66872;63.142;14.482;2023-07-29T05:19:47;1.10;;;1.00;;
16531;SDS011;66872;63.142;14.482;2023-07-29T05:22:13;1.27;;;1.17;;
16531;SDS011;66872;63.142;14.482;2023-07-29T05:24:38;1.30;;;1.20;;
16531;SDS011;66872;63.142;14.482;2023-07-29T05:27:05;1.40;;;1.30;;
16531;SDS011;66872;63.142;14.482;2023-07-29T05:29:33;1.20;;;1.10;;
16531;SDS011;66872;63.142;14.482;2023-07-29T05:31:59;1.00;;;1.00;;
16531;SDS011;66872;63.142;14.482;2023-07-29T05:34:25;1.20;;;1.10;;
16531;SDS011;66872;63.142;14.482;2023-07-29T05:36:51;0.90;;;0.90;;
16531;SDS011;66872;63.142;14.482;2023-07-29T05:39:17;1.23;;;1.13;;
16531;SDS011;66872;63.142;14.482;2023-07-29T05:41:42;1.13;;;1.03;;
16531;SDS011;66872;63.142;14.482;2023-07-29T05:44:08;1.13;;;1.03;;
16531;SDS011;66872;63.142;14.482;2023-07-29T05:46:37;1.08;;;1.08;;
16531;SDS011;66872;63.142;14.482;2023-07-29T05:49:05;1.35;;;1.25;;
16531;SDS011;66872;63.142;14.482;2023-07-29T05:51:35;0.98;;;0.95;;
16531;SDS011;66872;63.142;14.482;2023-07-29T05:54:00;1.13;;;1.10;;
16531;SDS011;66872;63.142;14.482;2023-07-29T05:56:26;0.73;;;0.73;;
16531;SDS011;66872;63.142;14.482;2023-07-29T05:58:52;1.25;;;1.15;;
16531;SDS011;66872;63.142;14.482;2023-07-29T06:01:18;1.00;;;1.00;;
16531;SDS011;66872;63.142;14.482;2023-07-29T06:03:52;0.77;;;0.77;;
16531;SDS011;66872;63.142;14.482;2023-07-29T06:06:21;1.10;;;1.00;;
16531;SDS011;66872;63.142;14.482;2023-07-29T06:08:48;1.10;;;1.00;;
16531;SDS011;66872;63.142;14.482;2023-07-29T06:11:15;1.00;;;1.00;;
16531;SDS011;66872;63.142;14.482;2023-07-29T06:13:41;0.73;;;0.73;;
16531;SDS011;66872;63.142;14.482;2023-07-29T06:16:07;1.20;;;1.10;;
16531;SDS011;66872;63.142;14.482;2023-07-29T06:18:33;0.88;;;0.88;;
16531;SDS011;66872;63.142;14.482;2023-07-29T06:20:58;1.17;;;1.08;;
16531;SDS011;66872;63.142;14.482;2023-07-29T06:23:27;1.10;;;1.00;;
16531;SDS011;66872;63.142;14.482;2023-07-29T06:25:55;1.05;;;1.00;;
16531;SDS011;66872;63.142;14.482;2023-07-29T06:28:21;0.93;;;0.93;;
16531;SDS011;66872;63.142;14.482;2023-07-29T06:30:47;1.23;;;1.13;;
16531;SDS011;66872;63.142;14.482;2023-07-29T06:33:13;0.93;;;0.93;;
16531;SDS011;66872;63.142;14.482;2023-07-29T06:35:38;0.80;;;0.80;;
16531;SDS011;66872;63.142;14.482;2023-07-29T06:38:04;0.80;;;0.80;;
16531;SDS011;66872;63.142;14.482;2023-07-29T06:40:30;0.85;;;0.80;;
16531;SDS011;66872;63.142;14.482;2023-07-29T06:42:55;0.90;;;0.90;;
16531;SDS011;66872;63.142;14.482;2023-07-29T06:45:22;0.88;;;0.88;;
16531;SDS011;66872;63.142;14.482;2023-07-29T06:47:48;1.08;;;1.08;;
16531;SDS011;66872;63.142;14.482;2023-07-29T06:50:14;0.85;;;0.85;;
16531;SDS011;66872;63.142;14.482;2023-07-29T06:52:39;0.90;;;0.90;;
16531;SDS011;66872;63.142;14.482;2023-07-29T06:55:17;0.80;;;0.80;;
16531;SDS011;66872;63.142;14.482;2023-07-29T06:58:08;0.73;;;0.73;;
16531;SDS011;66872;63.142;14.482;2023-07-29T07:00:37;0.90;;;0.90;;
16531;SDS011;66872;63.142;14.482;2023-07-29T07:03:12;0.60;;;0.60;;
16531;SDS011;66872;63.142;14.482;2023-07-29T07:05:42;0.65;;;0.65;;
16531;SDS011;66872;63.142;14.482;2023-07-29T07:08:08;0.80;;;0.80;;
16531;SDS011;66872;63.142;14.482;2023-07-29T07:10:34;1.00;;;1.00;;
16531;SDS011;66872;63.142;14.482;2023-07-29T07:13:01;0.80;;;0.80;;
16531;SDS011;66872;63.142;14.482;2023-07-29T07:15:27;0.95;;;0.90;;
16531;SDS011;66872;63.142;14.482;2023-07-29T07:17:53;0.88;;;0.88;;
16531;SDS011;66872;63.142;14.482;2023-07-29T07:20:19;0.90;;;0.90;;
16531;SDS011;66872;63.142;14.482;2023-07-29T07:22:45;0.80;;;0.80;;
16531;SDS011;66872;63.142;14.482;2023-07-29T07:25:12;1.58;;;0.85;;
16531;SDS011;66872;63.142;14.482;2023-07-29T07:27:40;0.90;;;0.90;;
16531;SDS011;66872;63.142;14.482;2023-07-29T07:30:07;0.88;;;0.88;;
16531;SDS011;66872;63.142;14.482;2023-07-29T07:32:34;0.90;;;0.90;;
16531;SDS011;66872;63.142;14.482;2023-07-29T07:35:00;0.85;;;0.85;;
16531;SDS011;66872;63.142;14.482;2023-07-29T07:37:25;0.88;;;0.88;;
16531;SDS011;66872;63.142;14.482;2023-07-29T07:39:51;1.45;;;0.70;;
16531;SDS011;66872;63.142;14.482;2023-07-29T07:42:17;0.68;;;0.68;;
16531;SDS011;66872;63.142;14.482;2023-07-29T07:44:43;0.70;;;0.70;;
16531;SDS011;66872;63.142;14.482;2023-07-29T07:47:09;0.77;;;0.77;;
16531;SDS011;66872;63.142;14.482;2023-07-29T07:49:34;0.88;;;0.88;;
16531;SDS011;66872;63.142;14.482;2023-07-29T07:52:00;0.70;;;0.70;;
16531;SDS011;66872;63.142;14.482;2023-07-29T07:54:26;0.82;;;0.80;;
16531;SDS011;66872;63.142;14.482;2023-07-29T07:56:51;0.98;;;0.93;;
16531;SDS011;66872;63.142;14.482;2023-07-29T07:59:17;0.77;;;0.77;;
16531;SDS011;66872;63.142;14.482;2023-07-29T08:01:43;0.82;;;0.82;;
16531;SDS011;66872;63.142;14.482;2023-07-29T08:04:15;0.70;;;0.70;;
16531;SDS011;66872;63.142;14.482;2023-07-29T08:06:41;0.90;;;0.90;;
16531;SDS011;66872;63.142;14.482;2023-07-29T08:09:19;0.80;;;0.80;;
16531;SDS011;66872;63.142;14.482;2023-07-29T08:11:44;0.70;;;0.70;;
16531;SDS011;66872;63.142;14.482;2023-07-29T08:14:13;0.93;;;0.90;;
16531;SDS011;66872;63.142;14.482;2023-07-29T08:16:38;0.93;;;0.93;;
16531;SDS011;66872;63.142;14.482;2023-07-29T08:19:05;0.70;;;0.70;;
16531;SDS011;66872;63.142;14.482;2023-07-29T08:21:34;0.85;;;0.85;;
16531;SDS011;66872;63.142;14.482;2023-07-29T08:24:00;0.85;;;0.85;;
16531;SDS011;66872;63.142;14.482;2023-07-29T08:26:26;0.77;;;0.77;;
16531;SDS011;66872;63.142;14.482;2023-07-29T08:28:52;0.88;;;0.88;;
16531;SDS011;66872;63.142;14.482;2023-07-29T08:31:17;0.70;;;0.70;;
16531;SDS011;66872;63.142;14.482;2023-07-29T08:33:43;0.90;;;0.90;;
16531;SDS011;66872;63.142;14.482;2023-07-29T08:36:09;0.90;;;0.90;;
16531;SDS011;66872;63.142;14.482;2023-07-29T08:38:35;0.88;;;0.88;;
16531;SDS011;66872;63.142;14.482;2023-07-29T08:43:37;1.05;;;0.90;;
16531;SDS011;66872;63.142;14.482;2023-07-29T08:46:05;0.80;;;0.80;;
16531;SDS011;66872;63.142;14.482;2023-07-29T08:48:33;0.70;;;0.70;;
16531;SDS011;66872;63.142;14.482;2023-07-29T08:51:07;1.33;;;1.23;;
16531;SDS011;66872;63.142;14.482;2023-07-29T08:53:37;0.80;;;0.80;;
16531;SDS011;66872;63.142;14.482;2023-07-29T08:56:04;0.80;;;0.80;;
16531;SDS011;66872;63.142;14.482;2023-07-29T08:58:30;0.90;;;0.90;;
16531;SDS011;66872;63.142;14.482;2023-07-29T09:00:57;0.70;;;0.70;;
16531;SDS011;66872;63.142;14.482;2023-07-29T09:03:26;0.85;;;0.85;;
16531;SDS011;66872;63.142;14.482;2023-07-29T09:05:53;0.60;;;0.60;;
16531;SDS011;66872;63.142;14.482;2023-07-29T09:08:21;0.80;;;0.80;;
16531;SDS011;66872;63.142;14.482;2023-07-29T09:10:47;0.85;;;0.85;;
16531;SDS011;66872;63.142;14.482;2023-07-29T09:13:22;0.65;;;0.65;;
16531;SDS011;66872;63.142;14.482;2023-07-29T09:15:48;0.90;;;0.90;;
16531;SDS011;66872;63.142;14.482;2023-07-29T09:18:19;0.75;;;0.75;;
16531;SDS011;66872;63.142;14.482;2023-07-29T09:20:45;0.75;;;0.75;;
16531;SDS011;66872;63.142;14.482;2023-07-29T09:23:12;0.80;;;0.80;;
16531;SDS011;66872;63.142;14.482;2023-07-29T09:25:38;0.70;;;0.70;;
16531;SDS011;66872;63.142;14.482;2023-07-29T09:28:08;0.82;;;0.82;;
16531;SDS011;66872;63.142;14.482;2023-07-29T09:30:40;0.80;;;0.80;;
16531;SDS011;66872;63.142;14.482;2023-07-29T09:33:07;0.68;;;0.68;;
16531;SDS011;66872;63.142;14.482;2023-07-29T09:35:35;0.75;;;0.75;;
16531;SDS011;66872;63.142;14.482;2023-07-29T09:38:02;0.80;;;0.80;;
16531;SDS011;66872;63.142;14.482;2023-07-29T09:40:36;1.00;;;1.00;;
16531;SDS011;66872;63.142;14.482;2023-07-29T09:43:03;0.90;;;0.90;;
16531;SDS011;66872;63.142;14.482;2023-07-29T09:45:30;0.98;;;0.75;;
16531;SDS011;66872;63.142;14.482;2023-07-29T09:47:59;0.80;;;0.80;;
16531;SDS011;66872;63.142;14.482;2023-07-29T09:50:25;0.82;;;0.80;;
16531;SDS011;66872;63.142;14.482;2023-07-29T09:52:52;1.00;;;1.00;;
16531;SDS011;66872;63.142;14.482;2023-07-29T09:55:20;0.93;;;0.93;;
16531;SDS011;66872;63.142;14.482;2023-07-29T09:57:48;0.70;;;0.70;;
16531;SDS011;66872;63.142;14.482;2023-07-29T10:00:18;0.88;;;0.88;;
16531;SDS011;66872;63.142;14.482;2023-07-29T10:02:45;0.93;;;0.93;;
16531;SDS011;66872;63.142;14.482;2023-07-29T10:05:11;1.23;;;0.80;;
16531;SDS011;66872;63.142;14.482;2023-07-29T10:07:37;0.60;;;0.60;;
16531;SDS011;66872;63.142;14.482;2023-07-29T10:10:07;0.90;;;0.90;;
16531;SDS011;66872;63.142;14.482;2023-07-29T10:12:34;0.90;;;0.90;;
16531;SDS011;66872;63.142;14.482;2023-07-29T10:15:04;0.80;;;0.80;;
16531;SDS011;66872;63.142;14.482;2023-07-29T10:17:35;0.95;;;0.85;;
16531;SDS011;66872;63.142;14.482;2023-07-29T10:20:05;0.73;;;0.73;;
16531;SDS011;66872;63.142;14.482;2023-07-29T10:22:36;0.80;;;0.80;;
16531;SDS011;66872;63.142;14.482;2023-07-29T10:25:08;0.95;;;0.95;;
16531;SDS011;66872;63.142;14.482;2023-07-29T10:27:42;0.80;;;0.80;;
16531;SDS011;66872;63.142;14.482;2023-07-29T10:30:21;0.90;;;0.90;;
16531;SDS011;66872;63.142;14.482;2023-07-29T10:32:47;0.70;;;0.70;;
16531;SDS011;66872;63.142;14.482;2023-07-29T10:35:14;0.80;;;0.80;;
16531;SDS011;66872;63.142;14.482;2023-07-29T10:37:41;0.77;;;0.77;;
16531;SDS011;66872;63.142;14.482;2023-07-29T10:40:08;0.90;;;0.90;;
16531;SDS011;66872;63.142;14.482;2023-07-29T10:42:36;0.80;;;0.80;;
16531;SDS011;66872;63.142;14.482;2023-07-29T10:45:24;1.08;;;1.00;;
16531;SDS011;66872;63.142;14.482;2023-07-29T10:47:49;0.80;;;0.80;;
16531;SDS011;66872;63.142;14.482;2023-07-29T10:50:19;0.90;;;0.90;;
16531;SDS011;66872;63.142;14.482;2023-07-29T10:52:50;1.10;;;1.00;;
16531;SDS011;66872;63.142;14.482;2023-07-29T10:55:50;0.75;;;0.75;;
16531;SDS011;66872;63.142;14.482;2023-07-29T10:58:11;1.17;;;1.08;;
16531;SDS011;66872;63.142;14.482;2023-07-29T11:00:41;0.70;;;0.70;;
16531;SDS011;66872;63.142;14.482;2023-07-29T11:03:08;0.70;;;0.70;;
16531;SDS011;66872;63.142;14.482;2023-07-29T11:08:20;0.80;;;0.80;;
16531;SDS011;66872;63.142;14.482;2023-07-29T11:11:03;0.90;;;0.82;;
16531;SDS011;66872;63.142;14.482;2023-07-29T11:13:30;0.80;;;0.80;;
16531;SDS011;66872;63.142;14.482;2023-07-29T11:15:58;0.80;;;0.80;;
16531;SDS011;66872;63.142;14.482;2023-07-29T11:18:28;1.13;;;1.00;;
16531;SDS011;66872;63.142;14.482;2023-07-29T11:20:59;1.02;;;1.02;;
16531;SDS011;66872;63.142;14.482;2023-07-29T11:23:29;0.90;;;0.90;;
16531;SDS011;66872;63.142;14.482;2023-07-29T11:25:55;1.08;;;0.98;;
16531;SDS011;66872;63.142;14.482;2023-07-29T11:28:21;0.77;;;0.77;;
16531;SDS011;66872;63.142;14.482;2023-07-29T11:30:47;0.90;;;0.90;;
16531;SDS011;66872;63.142;14.482;2023-07-29T11:33:16;0.98;;;0.98;;
16531;SDS011;66872;63.142;14.482;2023-07-29T11:35:53;1.00;;;1.00;;
16531;SDS011;66872;63.142;14.482;2023-07-29T11:38:20;0.85;;;0.80;;
16531;SDS011;66872;63.142;14.482;2023-07-29T11:41:20;0.90;;;0.90;;
16531;SDS011;66872;63.142;14.482;2023-07-29T11:43:44;0.80;;;0.80;;
16531;SDS011;66872;63.142;14.482;2023-07-29T11:46:10;1.15;;;0.98;;
16531;SDS011;66872;63.142;14.482;2023-07-29T11:48:36;0.70;;;0.70;;
16531;SDS011;66872;63.142;14.482;2023-07-29T11:51:02;0.70;;;0.70;;
16531;SDS011;66872;63.142;14.482;2023-07-29T11:53:28;0.90;;;0.90;;
16531;SDS011;66872;63.142;14.482;2023-07-29T11:55:55;0.90;;;0.90;;
16531;SDS011;66872;63.142;14.482;2023-07-29T11:58:21;0.90;;;0.90;;
16531;SDS011;66872;63.142;14.482;2023-07-29T12:00:48;0.90;;;0.90;;
16531;SDS011;66872;63.142;14.482;2023-07-29T12:03:14;1.08;;;1.00;;
16531;SDS011;66872;63.142;14.482;2023-07-29T12:05:42;1.30;;;0.90;;
16531;SDS011;66872;63.142;14.482;2023-07-29T12:08:08;0.88;;;0.80;;
16531;SDS011;66872;63.142;14.482;2023-07-29T12:10:34;1.67;;;0.90;;
16531;SDS011;66872;63.142;14.482;2023-07-29T12:13:02;0.93;;;0.93;;
16531;SDS011;66872;63.142;14.482;2023-07-29T12:15:28;0.70;;;0.70;;
16531;SDS011;66872;63.142;14.482;2023-07-29T12:17:55;0.85;;;0.85;;
16531;SDS011;66872;63.142;14.482;2023-07-29T12:20:22;0.90;;;0.90;;
16531;SDS011;66872;63.142;14.482;2023-07-29T12:22:55;0.98;;;0.88;;
16531;SDS011;66872;63.142;14.482;2023-07-29T12:25:22;0.93;;;0.90;;
16531;SDS011;66872;63.142;14.482;2023-07-29T12:27:48;0.80;;;0.80;;
16531;SDS011;66872;63.142;14.482;2023-07-29T12:30:14;0.80;;;0.80;;
16531;SDS011;66872;63.142;14.482;2023-07-29T12:32:45;0.95;;;0.93;;
16531;SDS011;66872;63.142;14.482;2023-07-29T12:35:11;0.80;;;0.80;;
16531;SDS011;66872;63.142;14.482;2023-07-29T12:37:37;0.68;;;0.68;;
16531;SDS011;66872;63.142;14.482;2023-07-29T12:40:07;0.90;;;0.90;;
16531;SDS011;66872;63.142;14.482;2023-07-29T12:42:33;0.65;;;0.65;;
16531;SDS011;66872;63.142;14.482;2023-07-29T12:44:59;0.70;;;0.70;;
16531;SDS011;66872;63.142;14.482;2023-07-29T12:47:24;1.00;;;0.93;;
16531;SDS011;66872;63.142;14.482;2023-07-29T12:49:50;0.93;;;0.93;;
16531;SDS011;66872;63.142;14.482;2023-07-29T12:52:16;0.80;;;0.80;;
16531;SDS011;66872;63.142;14.482;2023-07-29T12:54:42;0.63;;;0.63;;
16531;SDS011;66872;63.142;14.482;2023-07-29T12:57:09;0.80;;;0.80;;
16531;SDS011;66872;63.142;14.482;2023-07-29T12:59:35;0.90;;;0.90;;
16531;SDS011;66872;63.142;14.482;2023-07-29T13:02:00;0.80;;;0.80;;
16531;SDS011;66872;63.142;14.482;2023-07-29T13:04:26;0.95;;;0.90;;
16531;SDS011;66872;63.142;14.482;2023-07-29T13:06:52;0.80;;;0.80;;
16531;SDS011;66872;63.142;14.482;2023-07-29T13:09:17;0.85;;;0.85;;
16531;SDS011;66872;63.142;14.482;2023-07-29T13:11:43;0.82;;;0.82;;
16531;SDS011;66872;63.142;14.482;2023-07-29T13:14:09;1.10;;;1.00;;
16531;SDS011;66872;63.142;14.482;2023-07-29T13:16:35;0.70;;;0.70;;
16531;SDS011;66872;63.142;14.482;2023-07-29T13:19:01;0.90;;;0.90;;
16531;SDS011;66872;63.142;14.482;2023-07-29T13:21:27;0.80;;;0.80;;
16531;SDS011;66872;63.142;14.482;2023-07-29T13:23:53;1.40;;;0.85;;
16531;SDS011;66872;63.142;14.482;2023-07-29T13:26:18;1.02;;;0.90;;
16531;SDS011;66872;63.142;14.482;2023-07-29T13:28:44;0.77;;;0.77;;
16531;SDS011;66872;63.142;14.482;2023-07-29T13:31:10;2.00;;;0.93;;
16531;SDS011;66872;63.142;14.482;2023-07-29T13:33:36;0.90;;;0.90;;
16531;SDS011;66872;63.142;14.482;2023-07-29T13:36:02;0.70;;;0.70;;
16531;SDS011;66872;63.142;14.482;2023-07-29T13:38:33;0.75;;;0.75;;
16531;SDS011;66872;63.142;14.482;2023-07-29T13:40:59;1.20;;;1.10;;
16531;SDS011;66872;63.142;14.482;2023-07-29T13:43:27;0.80;;;0.80;;
16531;SDS011;66872;63.142;14.482;2023-07-29T13:45:53;0.82;;;0.80;;
16531;SDS011;66872;63.142;14.482;2023-07-29T13:48:19;1.08;;;1.00;;
16531;SDS011;66872;63.142;14.482;2023-07-29T13:50:45;1.33;;;1.00;;
16531;SDS011;66872;63.142;14.482;2023-07-29T13:53:11;0.90;;;0.90;;
16531;SDS011;66872;63.142;14.482;2023-07-29T13:55:38;1.05;;;0.95;;
16531;SDS011;66872;63.142;14.482;2023-07-29T13:58:03;0.82;;;0.80;;
16531;SDS011;66872;63.142;14.482;2023-07-29T14:00:29;0.88;;;0.88;;
16531;SDS011;66872;63.142;14.482;2023-07-29T14:02:55;0.95;;;0.90;;
16531;SDS011;66872;63.142;14.482;2023-07-29T14:05:20;0.95;;;0.88;;
16531;SDS011;66872;63.142;14.482;2023-07-29T14:07:46;0.95;;;0.95;;
16531;SDS011;66872;63.142;14.482;2023-07-29T14:10:12;0.82;;;0.82;;
16531;SDS011;66872;63.142;14.482;2023-07-29T14:12:38;0.90;;;0.90;;
16531;SDS011;66872;63.142;14.482;2023-07-29T14:15:12;0.90;;;0.90;;
16531;SDS011;66872;63.142;14.482;2023-07-29T14:17:38;0.82;;;0.82;;
16531;SDS011;66872;63.142;14.482;2023-07-29T14:20:07;0.88;;;0.88;;
16531;SDS011;66872;63.142;14.482;2023-07-29T14:22:33;1.10;;;1.00;;
16531;SDS011;66872;63.142;14.482;2023-07-29T14:25:00;0.90;;;0.90;;
16531;SDS011;66872;63.142;14.482;2023-07-29T14:27:26;1.03;;;1.00;;
16531;SDS011;66872;63.142;14.482;2023-07-29T14:29:52;0.90;;;0.90;;
16531;SDS011;66872;63.142;14.482;2023-07-29T14:32:18;0.80;;;0.80;;
16531;SDS011;66872;63.142;14.482;2023-07-29T14:34:47;0.65;;;0.65;;
16531;SDS011;66872;63.142;14.482;2023-07-29T14:37:14;0.82;;;0.80;;
16531;SDS011;66872;63.142;14.482;2023-07-29T14:39:39;0.93;;;0.93;;
16531;SDS011;66872;63.142;14.482;2023-07-29T14:42:05;0.70;;;0.70;;
16531;SDS011;66872;63.142;14.482;2023-07-29T14:44:32;0.90;;;0.90;;